Saturday, July 30, 2016, 9:32 PM EDT

KLNS, Lancaster Airport

Location: Lititz, PA, United States Lat: 40.117
Local Time: 9:32 PM EDT ( 1:32 GMT) Lon: -76.3
Time Zone: US/Eastern Elev: 403 ft

Show me the last for .
Show Decoded

2016-07-30 20:53 METAR KLNS 310053Z 06006KT 6SM BR FEW085 FEW100 22/21 A2999 RMK AO2 RAE52 SLP152
                 P0001 T02170211 =
2016-07-30 20:27 METAR KLNS 310027Z 10006KT 6SM -RA BR FEW009 SCT090 BKN110 22/21 A2998 RMK AO2
                 P0000 T02170211 =
2016-07-30 19:53 METAR KLNS 302353Z 10007KT 7SM -RA FEW044 SCT080 BKN110 22/22 A2998 RMK AO2
                 SLP151 P0003 60098 T02170217 10217 20206 52002 =
2016-07-30 19:07 METAR KLNS 302307Z 11008KT 6SM -RA BR FEW026 BKN038 OVC120 22/22 A2998 RMK AO2
                 P0000 T02170217 =
2016-07-30 18:53 METAR KLNS 302253Z 10006KT 2SM +RA BR BKN024 BKN031 OVC050 22/22 A2999 RMK AO2
                 RAB2155 SLP152 P0006 T02170217 =
2016-07-30 18:28 METAR KLNS 302228Z 10004KT 6SM -RA BR SCT012 BKN022 OVC028 22/22 A2998 RMK AO2
                 RAB2155 P0000 T02170217 =
2016-07-30 18:01 METAR KLNS 302201Z 06006KT 5SM -RA BR SCT013 BKN027 OVC060 22/22 A2997 RMK AO2
                 LTG DSNT SW RAB2155 P0000 T02170217 =
2016-07-30 17:53 METAR KLNS 302153Z 07005KT 5SM BR FEW013 BKN060 OVC095 21/21 A2997 RMK AO2 LTG
                 DSNT SW RAE43 SLP147 P0004 T02110211 =
2016-07-30 17:09 METAR KLNS 302109Z 06006KT 3SM -RA BR SCT033 BKN070 OVC095 21/21 A2997 RMK AO2
                 LTG DSNT SW-N P0004 T02110211 =
2016-07-30 16:53 METAR KLNS 302053Z 34004KT 1SM +RA BR FEW020 OVC031 21/21 A2998 RMK AO2 SLP148
                 P0053 60085 T02060206 56001 =
2016-07-30 16:48 METAR KLNS 302048Z 00000KT 1/2SM +RA FG BKN025 OVC041 21/21 A2998 RMK AO2 P0050
                 =
2016-07-30 16:39 METAR KLNS 302039Z 05003KT 1/2SM +RA FG SCT019 BKN031 OVC060 21/21 A2998 RMK AO2
                 P0032 T02060206 =
2016-07-30 16:30 METAR KLNS 302030Z 00000KT 1 3/4SM RA BR FEW021 BKN055 OVC070 21/21 A2999 RMK
                 AO2 P0009 T02110206 =
2016-07-30 15:53 METAR KLNS 301953Z 00000KT 7SM -RA FEW039 OVC080 21/21 A2997 RMK AO2 SLP147
                 P0001 T02110206 =
2016-07-30 14:53 METAR KLNS 301853Z AUTO 05007KT 2 1/2SM +RA BR FEW022 BKN055 OVC075 21/20 A2998
                 RMK AO2 LTG DSNT N AND NE AND SW TSB1757E18B30E45 SLP149 P0031 T02060200 =
2016-07-30 14:49 METAR KLNS 301849Z 04007KT 2 1/2SM +RA BR FEW022 BKN050 OVC070 21/20 A2998 RMK
                 AO2 LTG DSNT N AND NE AND SW TSB1757E18B30E45 P0030 =
2016-07-30 14:37 METAR KLNS 301837Z 04005KT 6SM -TSRA BR SCT023 BKN043 OVC060 21/20 A2999 RMK AO2
                 LTG DSNT NW-NE TSB1757E18B30 P0026 T02060200 =
2016-07-30 14:30 METAR KLNS 301830Z 04008KT 2 1/2SM TSRA BR FEW038 BKN047 OVC080 21/20 A2998 RMK
                 AO2 LTG DSNT N AND NW TSB1757E18B30 P0025 T02060200 =
2016-07-30 14:18 METAR KLNS 301818Z 05005KT 1 3/4SM VCTS +RA BR BKN041 OVC060 21/20 A2999 RMK AO2
                 LTG DSNT W-NE TSB1757E18 P0020 T02060200 =
2016-07-30 14:15 METAR KLNS 301815Z 08004KT 2 1/2SM +TSRA BR BKN041 OVC060 21/20 A3000 RMK AO2
                 LTG DSNT W-NE TSB1757 P0017 T02060200 =
2016-07-30 13:57 METAR KLNS 301757Z 07006KT 1 1/4SM +TSRA BR SCT025 BKN043 OVC075 21/20 A2999 RMK
                 AO2 LTG DSNT W AND NW TSB57 P0005 T02060200 =
2016-07-30 13:53 METAR KLNS 301753Z 09005KT 3/4SM VCTS +RA BR FEW025 BKN034 OVC060 21/20 A2999
                 RMK AO2 LTG DSNT W RAB05 SLP152 P0030 60030 T02060200 10283 20206 55002 =
2016-07-30 13:47 METAR KLNS 301747Z 13008KT 3/4SM VCTS +RA BR BKN025 BKN033 OVC060 21/21 A2999
                 RMK AO2 LTG DSNT W RAB05 P0023 =
2016-07-30 13:42 METAR KLNS 301742Z 16010KT 2SM VCTS RA BR BKN025 BKN033 OVC055 22/21 A3000 RMK
                 AO2 LTG DSNT SW AND W RAB05 P0014 T02170206 =
2016-07-30 13:25 METAR KLNS 301725Z 10007KT 8SM VCTS -RA FEW024 OVC033 22/21 A2999 RMK AO2 RAB05
                 P0008 T02170211 =
2016-07-30 12:53 METAR KLNS 301653Z 13008KT 8SM FEW020 FEW110 28/23 A2998 RMK AO2 SLP147
                 T02830233 =
2016-07-30 11:53 METAR KLNS 301553Z 11005KT 7SM BKN110 27/23 A2999 RMK AO2 SLP153 T02720233 =
2016-07-30 10:53 METAR KLNS 301453Z 13004KT 5SM HZ FEW013 SCT110 27/23 A2999 RMK AO2 SLP153
                 T02670228 58002 =
2016-07-30 10:44 METAR KLNS 301444Z 14007KT 5SM HZ SCT013 BKN110 27/23 A2999 RMK AO2 T02670228 =
2016-07-30 09:53 METAR KLNS 301353Z 00000KT 3SM BR OVC010 24/23 A3000 RMK AO2 CIG 007V013 SLP155
                 T02440228 =
2016-07-30 09:26 METAR KLNS 301326Z 12004KT 3SM BR OVC007 24/23 A2999 RMK AO2 CIG 006V012
                 T02390228 =
2016-07-30 09:08 METAR KLNS 301308Z 14005KT 2 1/2SM BR OVC006 24/23 A3000 RMK AO2 CIG 003V010
                 T02390228 =
2016-07-30 08:53 METAR KLNS 301253Z 14006KT 2SM BR OVC004 23/23 A3000 RMK AO2 SLP155 T02330228 =
2016-07-30 08:34 METAR KLNS 301234Z 12004KT 2 1/2SM BR OVC005 23/22 A3000 RMK AO2 T02280222 =
2016-07-30 07:53 METAR KLNS 301153Z 09004KT 4SM BR OVC004 22/21 A2999 RMK AO2 SLP154 T02220211
                 10222 20206 51010 =
2016-07-30 07:11 METAR KLNS 301111Z 10004KT 6SM BR BKN005 21/21 A2998 RMK AO2 T02110206 =
2016-07-30 06:53 METAR KLNS 301053Z 09004KT 6SM BR FEW004 21/20 A2998 RMK AO2 SLP148 T02110200 =
2016-07-30 05:53 METAR KLNS 300953Z 10003KT 8SM CLR 21/20 A2996 RMK AO2 SLP143 T02060200 =
2016-07-30 04:53 METAR KLNS 300853Z AUTO 11004KT 10SM CLR 21/19 A2995 RMK AO2 SLP139 T02060194
                 53001 =
2016-07-30 03:53 METAR KLNS 300753Z AUTO 11003KT 10SM CLR 21/20 A2994 RMK AO2 SLP134 T02110200 =
2016-07-30 02:53 METAR KLNS 300653Z AUTO 10003KT 10SM SCT050 BKN065 BKN080 22/20 A2995 RMK AO2
                 SLP139 T02220200 =
2016-07-30 01:53 METAR KLNS 300553Z AUTO 09004KT 10SM SCT050 BKN060 22/21 A2995 RMK AO2 SLP138
                 T02220206 10283 20222 50005 =
2016-07-30 00:53 METAR KLNS 300453Z AUTO 09004KT 9SM BKN055 23/21 A2995 RMK AO2 SLP138 T02280206
                 403060206 =
2016-07-29 23:53 METAR KLNS 300353Z AUTO 10003KT 7SM CLR 23/21 A2994 RMK AO2 SLP136 T02280211 =
2016-07-29 22:53 METAR KLNS 300253Z 00000KT 10SM CLR 24/21 A2993 RMK AO2 SLP133 T02440206 53014 =
2016-07-29 21:53 METAR KLNS 300153Z 00000KT 10SM CLR 25/21 A2992 RMK AO2 SLP127 T02500206 =

Support USWX by starting your Amazon purchase here.